Valiant — NA35 — position and weather

sailwx.info

Track history (hours):
 
Tides and Currents Weather Stations Pressure Air Temp Water Temp Dewpoint Dewpoint Depression Visibility Wind Speed Wind Dir Waves Ship Positions

Valiant

Last reported at 2017-Aug-16 00:53 UTC. Time now 2017-Aug-19 07:28 UTC.
Position N 39°26' W 076°00'.

Length 14 m.

Type: Sailing vessel. MMSI: 369970076.

Date/timePositionNaut miles runAvg speedWind from/ knotsBaromVisibWave heightAir tempDewpointWater temp
2017-Aug-16 00:53N 39°26' W 076°00'3 6.6
2017-Aug-16 00:30N 39°28' W 075°58'4 7.1
2017-Aug-16 00:00N 39°30' W 075°55'3 6.2
2017-Aug-15 23:30N 39°32' W 075°51'3 6.6
2017-Aug-15 23:00N 39°32' W 075°47'3 6.8
2017-Aug-15 22:30N 39°33' W 075°43'3 6.6
2017-Aug-15 22:00N 39°33' W 075°39'3 6.0
2017-Aug-15 21:30N 39°34' W 075°35'2 4.2
2017-Aug-15 21:00N 39°32' W 075°33'4 7.1
2017-Aug-15 20:30N 39°29' W 075°34'4 7.6
2017-Aug-15 20:00N 39°25' W 075°31'4 7.2
2017-Aug-15 19:30N 39°23' W 075°28'4 7.7
2017-Aug-15 19:00N 39°20' W 075°25'4 7.2
2017-Aug-15 18:30N 39°17' W 075°22'4 6.4
2017-Aug-15 17:56N 39°14' W 075°19'3 5.9
2017-Aug-15 17:30N 39°12' W 075°17'44 3.7
2017-Aug-15 05:51N 39°09' W 074°21'3 5.4
2017-Aug-15 05:13N 39°11' W 074°17'1 5.8
2017-Aug-15 05:00N 39°12' W 074°16'4 7.0
2017-Aug-15 04:21N 39°14' W 074°11'2 6.3
2017-Aug-15 04:00N 39°16' W 074°09'8 5.9
2017-Aug-15 02:42N 39°20' W 074°01'2 6.1
2017-Aug-15 02:27N 39°21' W 073°59'2 4.2
2017-Aug-15 01:57N 39°22' W 073°57'  
2017-Aug-08 07:26N 39°11' W 075°16'4 8.8
2017-Aug-08 07:00N 39°15' W 075°19'4 8.1
2017-Aug-08 06:30N 39°17' W 075°23'4 7.6
2017-Aug-08 06:00N 39°20' W 075°26'3 6.8
2017-Aug-08 05:30N 39°23' W 075°29'3 6.5
2017-Aug-08 05:00N 39°25' W 075°31'2 4.8
2017-Aug-08 04:30N 39°27' W 075°33'1 2.5
2017-Aug-08 04:00N 39°28' W 075°34'3 5.5
2017-Aug-08 03:30N 39°31' W 075°33'2 4.9
2017-Aug-08 03:00N 39°33' W 075°33'2 4.8
2017-Aug-08 02:30N 39°33' W 075°36'3 5.7
2017-Aug-08 02:00N 39°33' W 075°40'3 5.8
2017-Aug-08 01:30N 39°32' W 075°44'3 5.9
2017-Aug-08 01:00N 39°32' W 075°47'3 5.4
2017-Aug-08 00:30N 39°32' W 075°51'3 5.5
2017-Aug-08 00:00N 39°31' W 075°54'3 6.0
2017-Aug-07 23:30N 39°29' W 075°57'4 7.0
2017-Aug-07 22:56N 39°26' W 076°01'  
Track history (hours):
 
Tides and Currents Weather Stations Pressure Air Temp Water Temp Dewpoint Dewpoint Depression Visibility Wind Speed Wind Dir Waves Ship Positions

Valiant

Last reported at 2017-Aug-16 00:53 UTC. Time now 2017-Aug-19 07:28 UTC.
Position N 39°26' W 076°00'.

Length 14 m.

Type: Sailing vessel. MMSI: 369970076.

Date/timePositionNaut miles runAvg speedWind from/ knotsBaromVisibWave heightAir tempDewpointWater temp
2017-Aug-16 00:53N 39°26' W 076°00'3 6.6
2017-Aug-16 00:30N 39°28' W 075°58'4 7.1
2017-Aug-16 00:00N 39°30' W 075°55'3 6.2
2017-Aug-15 23:30N 39°32' W 075°51'3 6.6
2017-Aug-15 23:00N 39°32' W 075°47'3 6.8
2017-Aug-15 22:30N 39°33' W 075°43'3 6.6
2017-Aug-15 22:00N 39°33' W 075°39'3 6.0
2017-Aug-15 21:30N 39°34' W 075°35'2 4.2
2017-Aug-15 21:00N 39°32' W 075°33'4 7.1
2017-Aug-15 20:30N 39°29' W 075°34'4 7.6
2017-Aug-15 20:00N 39°25' W 075°31'4 7.2
2017-Aug-15 19:30N 39°23' W 075°28'4 7.7
2017-Aug-15 19:00N 39°20' W 075°25'4 7.2
2017-Aug-15 18:30N 39°17' W 075°22'4 6.4
2017-Aug-15 17:56N 39°14' W 075°19'3 5.9
2017-Aug-15 17:30N 39°12' W 075°17'44 3.7
2017-Aug-15 05:51N 39°09' W 074°21'3 5.4
2017-Aug-15 05:13N 39°11' W 074°17'1 5.8
2017-Aug-15 05:00N 39°12' W 074°16'4 7.0
2017-Aug-15 04:21N 39°14' W 074°11'2 6.3
2017-Aug-15 04:00N 39°16' W 074°09'8 5.9
2017-Aug-15 02:42N 39°20' W 074°01'2 6.1
2017-Aug-15 02:27N 39°21' W 073°59'2 4.2
2017-Aug-15 01:57N 39°22' W 073°57'  
2017-Aug-08 07:26N 39°11' W 075°16'4 8.8
2017-Aug-08 07:00N 39°15' W 075°19'4 8.1
2017-Aug-08 06:30N 39°17' W 075°23'4 7.6
2017-Aug-08 06:00N 39°20' W 075°26'3 6.8
2017-Aug-08 05:30N 39°23' W 075°29'3 6.5
2017-Aug-08 05:00N 39°25' W 075°31'2 4.8
2017-Aug-08 04:30N 39°27' W 075°33'1 2.5
2017-Aug-08 04:00N 39°28' W 075°34'3 5.5
2017-Aug-08 03:30N 39°31' W 075°33'2 4.9
2017-Aug-08 03:00N 39°33' W 075°33'2 4.8
2017-Aug-08 02:30N 39°33' W 075°36'3 5.7
2017-Aug-08 02:00N 39°33' W 075°40'3 5.8
2017-Aug-08 01:30N 39°32' W 075°44'3 5.9
2017-Aug-08 01:00N 39°32' W 075°47'3 5.4
2017-Aug-08 00:30N 39°32' W 075°51'3 5.5
2017-Aug-08 00:00N 39°31' W 075°54'3 6.0
2017-Aug-07 23:30N 39°29' W 075°57'4 7.0
2017-Aug-07 22:56N 39°26' W 076°01'  

Dump ship's entire track history